Station: Oenpelli Airport  

  Atmospheric Gas Attenuation - ITU Rec 676-11   ----------------- dB/100km -----------------
Date Time Temp RH % AH g/m3 Dew Point Wind Direction Speed kph Gust kph Barometer mB Rainfall Since 9am 24GHz 47GHz 76GHz 122GHz 134GHz 241GHz
03/09 15:40 35.6 28 11.43 14.3 13 20 1012.8 0 24.4 24.1 39.4 103.8 104.3 361.8
03/09 15:30 35.8 29 11.96 15 9 17 1013 0 25.4 24.7 41.1 108.2 109.8 381.1
03/09 15:20 35.1 29 11.53 14.4 9 22 1013.1 0 24.6 24.3 40.0 105.3 106.1 367.9
03/09 15:10 35.8 28 11.54 14.4 11 19 1013.2 0 24.6 24.2 39.7 104.5 105.3 365.2
03/09 15:00 35.2 29 11.59 14.5 11 19 1013.3 0 24.7 24.4 40.2 105.7 106.6 369.8
03/09 14:50 34.8 31 12.13 15.2 9 20 1013.5 0 25.8 25.3 42.2 111.1 113.1 392.6
03/09 14:40 35.8 29 11.96 15 13 20 1013.6 0 25.4 24.8 41.1 108.3 109.9 381.3
03/09 14:30 35.6 29 11.83 14.8 17 20 1013.8 0 25.2 24.6 40.8 107.4 108.8 377.3
03/09 14:20 35.7 29 11.9 14.9 11 24 1013.8 0 25.3 24.7 41.0 107.9 109.4 379.5
03/09 14:10 35.6 30 12.24 15.3 11 20 1014 0 26.0 25.2 42.2 111.1 113.3 393.2
03/09 14:00 35.2 30 11.99 15 13 24 1014.2 0 25.5 25.0 41.5 109.4 111.1 385.4
03/09 13:50 34.9 31 12.2 15.3 11 19 1014.4 0 26.0 25.4 42.4 111.7 113.9 395.1
03/09 13:40 34.7 31 12.07 15.1 13 22 1014.5 0 25.7 25.2 42.1 110.8 112.7 391.0
03/09 13:30 34.9 31 12.2 15.3 11 17 1014.7 0 26.0 25.4 42.4 111.8 113.9 395.2
03/09 13:20 34.7 31 12.07 15.1 13 22 1014.9 0 25.7 25.2 42.1 110.9 112.7 391.1
03/09 13:10 34.8 31 12.13 15.2 9 19 1014.9 0 25.8 25.3 42.2 111.3 113.3 393.0
03/09 13:00 34.2 31 11.76 14.7 17 24 1015.1 0 25.1 25.0 41.3 108.7 110.0 381.4
03/09 12:50 34.1 32 12.08 15.1 9 26 1015.3 0 25.8 25.4 42.4 111.8 113.7 394.5
03/09 12:40 33.5 33 12.07 15 13 22 1015.6 0 25.8 25.6 42.7 112.6 114.5 397.1
03/09 12:30 33.8 32 11.89 14.8 15 28 1015.8 0 25.4 25.3 42.0 110.5 112.0 388.6
03/09 12:20 33.6 33 12.13 15.1 15 26 1016 0 25.9 25.7 42.9 113.0 115.1 399.1
03/09 12:10 33.3 34 12.3 15.3 11 24 1016.3 0 26.3 26.0 43.7 115.0 117.5 407.5
03/09 12:00 33.8 33 12.26 15.3 11 24 1016.5 0 26.2 25.8 43.3 114.0 116.3 403.5
03/09 11:50 33.5 33 12.07 15 15 22 1016.7 0 25.8 25.6 42.8 112.7 114.6 397.4
03/09 11:40 32.4 34 11.73 14.5 17 26 1016.9 0 25.1 25.5 42.2 111.1 112.3 389.3
03/09 11:30 32.8 35 12.33 15.3 15 26 1017 0 26.4 26.2 44.1 116.1 118.6 411.4
03/09 11:20 32.1 37 12.56 15.6 15 24 1017.2 0 26.9 26.8 45.3 119.3 122.3 424.5
03/09 11:10 32.2 35 11.95 14.8 13 22 1017.4 0 25.6 25.9 43.1 113.4 115.1 399.2
03/09 11:00 32.1 36 12.22 15.1 15 26 1017.6 0 26.2 26.3 44.1 116.1 118.4 410.7
03/09 10:50 31.6 39 12.89 16 11 19 1017.6 0 27.6 27.4 46.8 123.3 127.1 441.0
03/09 10:40 31.6 39 12.89 16 15 20 1017.8 0 27.6 27.4 46.8 123.3 127.1 441.0
03/09 10:30 31 39 12.48 15.4 11 22 1017.8 0 26.8 27.0 45.6 120.2 123.2 427.2
03/09 10:20 30.8 39 12.35 15.2 13 17 1018 0 26.5 26.9 45.3 119.3 121.9 422.9
03/09 10:10 30.4 40 12.4 15.3 13 20 1018.1 0 26.6 27.1 45.7 120.4 123.2 427.1
03/09 10:00 29.9 42 12.67 15.6 15 22 1018.2 0 27.2 27.6 47.0 123.8 127.2 441.2
03/09 09:50 29.8 43 12.9 15.9 11 20 1018.2 0 27.7 28.0 47.9 126.2 130.2 451.6
03/09 09:40 29.4 46 13.51 16.6 9 15 1018.3 0 29.0 29.1 50.4 133.0 138.4 480.4
03/09 09:30 29.3 47 13.72 16.8 11 15 1018.3 0 29.5 29.4 51.3 135.3 141.2 490.2
03/09 09:20 29 48 13.79 16.9 9 17 1018.2 0 29.6 29.6 51.8 136.6 142.7 495.1
03/09 09:10 28.5 50 13.98 17.1 11 17 1018.2 0 30.1 30.1 52.8 139.4 146.0 506.8
03/09 09:00 28.4 51 14.18 17.3 9 17 1018.2 0 30.5 30.4 53.7 141.7 148.8 516.4
03/09 08:50 28.2 55 15.12 18.3 9 11 1018.1 0 32.5 32.0 57.6 152.1 161.5 560.9
03/09 08:40 27.3 60 15.7 18.9 6 11 1018.1 0 33.7 33.3 60.7 160.3 171.3 594.9
03/09 08:30 27.1 60 15.53 18.7 7 13 1018.1 0 33.4 33.1 60.1 158.8 169.4 588.3
03/09 08:20 27 63 16.21 19.4 6 13 1018 0 34.8 34.3 63.1 166.6 179.1 621.9
03/09 08:10 26.3 68 16.83 19.9 4 7 1018 0 36.2 35.7 66.4 175.3 189.5 658.3
03/09 08:00 25.7 72 17.24 20.3 2 4 1018 0 37.1 36.7 68.7 181.6 197.0 684.2
03/09 07:50 24.3 80 17.7 20.6 0 0 1017.9 0 38.2 38.1 72.1 190.5 207.6 720.9
03/09 07:40 22.6 89 17.88 20.7 0 0 1017.9 0 38.8 39.2 74.6 197.1 215.2 747.0
03/09 07:30 21.5 93 17.54 20.3 0 0 1017.7 0 38.2 39.1 74.0 195.6 213.0 739.3
03/09 07:20 20.6 92 16.46 19.2 0 0 1017.6 0 35.9 37.4 69.7 184.2 198.7 689.3
03/09 07:10 19.9 94 16.15 18.9 0 0 1017.5 0 35.3 37.2 68.9 182.0 195.7 678.9
03/09 07:00 19.4 93 15.52 18.2 0 0 1017.4 0 34.0 36.2 66.4 175.3 187.3 649.5
03/09 06:50 19.4 93 15.52 18.2 0 0 1017.3 0 34.0 36.2 66.4 175.2 187.3 649.5
03/09 06:40 19.5 91 15.27 18 0 0 1017.1 0 33.5 35.7 65.1 171.9 183.2 635.3
03/09 06:30 19.6 89 15.02 17.7 0 0 1017.1 0 32.9 35.2 63.9 168.6 179.2 621.3
03/09 06:20 20 92 15.9 18.6 0 0 1017 0 34.8 36.6 67.6 178.5 191.5 664.4
03/09 06:10 20 90 15.55 18.4 0 0 1016.9 0 34.1 36.0 66.0 174.2 186.2 645.8
03/09 06:00 20.2 91 15.91 18.7 0 0 1016.8 0 34.8 36.5 67.4 178.2 191.2 663.1
03/09 05:50 20.3 92 16.18 18.9 0 0 1016.6 0 35.4 37.0 68.6 181.3 195.0 676.5
03/09 05:40 20.3 90 15.83 18.7 0 0 1016.4 0 34.6 36.3 67.0 176.9 189.6 657.8
03/09 05:30 20.3 90 15.83 18.6 0 0 1016.4 0 34.6 36.3 67.0 176.9 189.6 657.8
03/09 05:20 20.5 92 16.37 19.1 0 0 1016.4 0 35.8 37.3 69.3 183.1 197.4 684.8
03/09 05:10 20.4 90 15.92 18.8 0 0 1016.4 0 34.8 36.5 67.3 177.8 190.7 661.7
03/09 05:00 20.4 89 15.74 18.5 0 0 1016.3 0 34.4 36.1 66.5 175.5 188.0 652.1
03/09 04:50 20.6 88 15.75 18.5 0 0 1016.3 0 34.4 36.1 66.3 175.2 187.6 650.9
03/09 04:40 20.8 90 16.29 19.2 0 0 1016.3 0 35.6 37.0 68.7 181.4 195.4 677.7
03/09 04:30 20.7 88 15.84 18.6 0 0 1016.3 0 34.6 36.2 66.7 176.1 188.8 654.8
03/09 04:20 21 90 16.49 19.3 0 0 1016.3 0 36.0 37.3 69.4 183.4 197.9 686.6
03/09 04:10 21.3 87 16.22 19 0 0 1016.2 0 35.4 36.6 67.9 179.3 193.0 669.5
03/09 04:00 21.3 86 16.03 18.9 0 0 1016.2 0 35.0 36.3 67.0 177.0 190.1 659.5
03/09 03:50 21.9 85 16.4 19.3 2 4 1016.2 0 35.7 36.7 68.2 180.1 194.1 673.7
03/09 03:40 22.7 80 16.16 19.1 4 6 1016.2 0 35.1 35.9 66.4 175.3 188.5 654.2
03/09 03:30 23.3 86 17.98 20.8 4 6 1016.2 0 38.9 39.0 74.3 196.3 214.5 744.6
03/09 03:20 23.3 86 17.98 20.8 6 7 1016.2 0 38.9 39.0 74.3 196.3 214.5 744.6
03/09 03:10 23.4 85 17.87 20.7 6 7 1016.2 0 38.7 38.8 73.6 194.7 212.5 737.7
03/09 03:00 23.6 85 18.08 20.9 6 7 1016.2 0 39.1 39.1 74.4 196.8 215.1 747.0
03/09 02:50 23.6 84 17.86 20.7 6 7 1016.3 0 38.7 38.7 73.4 194.1 211.8 735.3
03/09 02:40 23.5 85 17.97 20.8 6 7 1016.4 0 38.9 38.9 74.0 195.7 213.8 742.2
03/09 02:30 23.4 86 18.08 20.9 4 6 1016.4 0 39.1 39.2 74.6 197.3 215.8 749.1
03/09 02:20 22.6 85 17.07 19.9 0 6 1016.4 0 37.1 37.6 70.7 186.7 202.5 702.8
03/09 02:10 22.8 84 17.07 19.9 0 0 1016.5 0 37.0 37.6 70.5 186.3 202.0 701.0
03/09 02:00 23 84 17.26 20.1 2 2 1016.6 0 37.4 37.8 71.2 188.1 204.3 709.3
03/09 01:50 23.4 84 17.66 20.5 2 4 1016.7 0 38.2 38.4 72.7 192.1 209.3 726.8
03/09 01:40 23.4 84 17.66 20.5 4 4 1016.7 0 38.2 38.4 72.7 192.1 209.3 726.8
03/09 01:30 23.5 84 17.76 20.6 4 6 1016.8 0 38.5 38.6 73.1 193.1 210.6 731.2
03/09 01:20 23.7 83 17.75 20.6 4 7 1016.8 0 38.4 38.4 72.8 192.5 209.9 728.7
03/09 01:10 23.6 83 17.65 20.5 4 6 1016.9 0 38.2 38.3 72.5 191.5 208.7 724.4
03/09 01:00 23.6 83 17.65 20.5 4 6 1016.9 0 38.2 38.3 72.5 191.5 208.7 724.4
03/09 00:50 23.7 82 17.54 20.4 4 6 1017 0 38.0 38.1 71.9 189.9 206.7 717.7
03/09 00:40 23.9 81 17.52 20.4 4 6 1017 0 37.9 37.9 71.6 189.2 205.9 714.8
03/09 00:30 23.9 81 17.52 20.4 4 7 1017.1 0 37.9 37.9 71.6 189.2 205.9 714.8
03/09 00:20 23.9 81 17.52 20.4 4 6 1017.2 0 37.9 37.9 71.6 189.2 205.9 714.9
03/09 00:10 23.9 80 17.31 20.2 6 6 1017.2 0 37.5 37.6 70.6 186.6 202.7 703.8
03/09 00:00 23.9 80 17.31 20.2 4 6 1017.3 0 37.5 37.6 70.6 186.7 202.7 703.9
02/09 23:50 23.9 81 17.52 20.4 4 7 1017.2 0 37.9 37.9 71.6 189.2 205.9 714.9
02/09 23:40 23.7 81 17.32 20.2 4 6 1017.2 0 37.5 37.7 70.8 187.3 203.4 706.2
02/09 23:30 23.7 81 17.32 20.2 4 6 1017.2 0 37.5 37.7 70.8 187.3 203.4 706.2
02/09 23:20 23.8 80 17.21 20.1 4 6 1017.1 0 37.2 37.4 70.2 185.6 201.5 699.5
02/09 23:10 23.9 80 17.31 20.2 4 6 1017 0 37.5 37.5 70.6 186.6 202.7 703.7

Last Refresh: 03-Sep-2026 15:49:59

Bureau of Meteorology